createdAt,value
2023-01-20T00:02:42.030Z,8.43
2023-01-20T00:06:06.388Z,6.30
2023-01-20T00:09:30.061Z,6.97
2023-01-20T00:12:55.783Z,8.23
2023-01-20T00:16:19.265Z,7.23
2023-01-20T00:19:42.908Z,8.10
2023-01-20T00:23:06.375Z,6.77
2023-01-20T00:26:29.835Z,8.57
2023-01-20T00:29:54.995Z,9.47
2023-01-20T00:33:18.623Z,7.03
2023-01-20T00:36:42.469Z,6.90
2023-01-20T00:40:07.805Z,7.43
2023-01-20T00:43:31.340Z,7.07
2023-01-20T00:46:56.501Z,6.17
2023-01-20T00:50:20.451Z,5.57
2023-01-20T00:53:44.283Z,6.20
2023-01-20T00:57:07.691Z,6.57
2023-01-20T01:00:31.182Z,6.73
2023-01-20T01:03:56.497Z,6.40
2023-01-20T01:07:20.307Z,6.60
2023-01-20T01:10:44.065Z,5.97
2023-01-20T01:14:07.510Z,5.33
2023-01-20T01:17:31.530Z,5.63
2023-01-20T01:20:56.781Z,7.30
2023-01-20T01:24:20.661Z,4.87
2023-01-20T01:27:44.094Z,8.10
2023-01-20T01:31:09.431Z,4.97
2023-01-20T01:34:33.574Z,6.60
2023-01-20T01:37:58.347Z,4.97
2023-01-20T01:41:21.696Z,5.57
2023-01-20T01:45:28.871Z,5.03
2023-01-20T01:48:53.326Z,5.70
2023-01-20T01:52:18.618Z,6.83
2023-01-20T01:55:51.304Z,5.40
2023-01-20T01:59:16.152Z,4.93
2023-01-20T02:02:49.212Z,5.27
2023-01-20T02:06:14.903Z,5.37
2023-01-20T02:09:39.162Z,5.50
2023-01-20T02:13:05.599Z,5.07
2023-01-20T02:16:44.507Z,5.40
2023-01-20T02:20:40.319Z,4.70
2023-01-20T02:25:03.256Z,4.73
2023-01-20T02:29:05.579Z,5.57
2023-01-20T02:32:42.114Z,5.03
2023-01-20T02:36:11.033Z,4.40
2023-01-20T02:39:41.285Z,7.27
2023-01-20T02:43:12.860Z,5.60
2023-01-20T02:46:41.553Z,8.70
2023-01-20T02:50:14.873Z,5.83
2023-01-20T02:53:48.710Z,8.53
2023-01-20T02:57:19.549Z,7.40
2023-01-20T03:00:50.075Z,7.80
2023-01-20T03:04:20.163Z,6.00
2023-01-20T03:07:46.844Z,7.20
2023-01-20T03:11:11.023Z,6.20
2023-01-20T03:14:35.378Z,6.70
2023-01-20T03:17:59.640Z,7.47
2023-01-20T03:21:24.210Z,5.73
2023-01-20T03:24:50.117Z,5.97
2023-01-20T03:28:14.589Z,5.40
2023-01-20T03:31:42.342Z,5.17
2023-01-20T03:35:06.775Z,6.90
2023-01-20T03:38:30.810Z,6.30
2023-01-20T03:42:08.110Z,7.70
2023-01-20T03:45:38.213Z,6.17
2023-01-20T03:49:15.152Z,5.93
2023-01-20T03:52:47.719Z,5.40
2023-01-20T03:56:21.642Z,6.40
2023-01-20T03:59:51.174Z,5.77
2023-01-20T04:03:20.693Z,5.20
2023-01-20T04:06:46.565Z,6.17
2023-01-20T04:10:15.737Z,5.13
2023-01-20T04:13:39.582Z,4.67
2023-01-20T04:17:07.759Z,5.37
2023-01-20T04:20:31.699Z,4.80
2023-01-20T04:24:01.728Z,5.83
2023-01-20T04:27:25.637Z,7.30
2023-01-20T04:30:50.700Z,5.00
2023-01-20T04:34:16.501Z,5.13
2023-01-20T04:37:40.013Z,4.80
2023-01-20T04:41:03.909Z,4.90
2023-01-20T04:44:27.899Z,4.93
2023-01-20T04:47:51.784Z,5.43
2023-01-20T04:51:16.766Z,5.30
2023-01-20T04:54:40.200Z,5.60
2023-01-20T04:58:03.638Z,4.60
2023-01-20T05:01:27.843Z,4.63
2023-01-20T05:04:51.789Z,6.10
2023-01-20T05:08:16.638Z,5.90
2023-01-20T05:11:40.133Z,6.50
2023-01-20T05:15:04.096Z,6.43
2023-01-20T05:18:27.926Z,5.33
2023-01-20T05:21:51.803Z,4.87
2023-01-20T05:25:16.868Z,5.07
2023-01-20T05:28:40.909Z,5.77
2023-01-20T05:32:04.716Z,5.50
2023-01-20T05:35:28.598Z,6.13
2023-01-20T05:38:52.406Z,5.83
2023-01-20T05:42:17.567Z,5.50
2023-01-20T05:45:42.173Z,5.40
2023-01-20T05:49:05.997Z,4.43
2023-01-20T05:52:29.841Z,4.77
2023-01-20T05:56:05.116Z,4.33
2023-01-20T05:59:30.144Z,4.80
2023-01-20T06:02:53.924Z,7.40
2023-01-20T06:06:18.392Z,4.23
2023-01-20T06:09:42.273Z,5.40
2023-01-20T06:13:05.886Z,5.40
2023-01-20T06:16:30.912Z,6.03
2023-01-20T06:19:54.793Z,5.10
2023-01-20T06:23:18.780Z,6.43
2023-01-20T06:26:42.293Z,5.00
2023-01-20T06:30:06.765Z,5.20
2023-01-20T06:33:32.291Z,5.37
2023-01-20T06:36:55.900Z,5.70
2023-01-20T06:40:20.277Z,5.60
2023-01-20T06:43:44.155Z,5.43
2023-01-20T06:47:08.044Z,7.60
2023-01-20T06:50:34.331Z,5.73
2023-01-20T06:53:58.673Z,4.93
2023-01-20T06:57:22.655Z,6.27
2023-01-20T07:00:46.446Z,6.20
2023-01-20T07:04:14.837Z,5.43
2023-01-20T07:07:39.882Z,5.13
2023-01-20T07:11:03.628Z,5.47
2023-01-20T07:14:27.132Z,7.63
2023-01-20T07:17:50.927Z,6.10
2023-01-20T07:21:14.731Z,6.13
2023-01-20T07:24:39.875Z,6.60
2023-01-20T07:28:03.311Z,5.67
2023-01-20T07:31:29.439Z,6.60
2023-01-20T07:34:53.257Z,6.53
2023-01-20T07:38:17.092Z,6.57
2023-01-20T07:41:43.793Z,5.80
2023-01-20T07:45:08.994Z,7.70
2023-01-20T07:48:34.294Z,10.50
2023-01-20T07:51:57.756Z,7.30
2023-01-20T07:55:23.580Z,7.93
2023-01-20T07:58:50.690Z,4.93
2023-01-20T08:02:14.243Z,9.37
2023-01-20T08:05:38.137Z,5.67
2023-01-20T08:09:02.726Z,6.10
2023-01-20T08:12:26.565Z,11.13
2023-01-20T08:15:51.763Z,5.87
2023-01-20T08:19:15.556Z,6.73
2023-01-20T08:22:39.149Z,5.70
2023-01-20T08:26:06.794Z,7.00
2023-01-20T08:29:31.279Z,5.60
2023-01-20T08:32:56.617Z,5.80
2023-01-20T08:36:23.995Z,6.07
2023-01-20T08:39:47.541Z,6.57
2023-01-20T08:43:11.725Z,7.10
2023-01-20T08:46:40.471Z,4.70
2023-01-20T08:50:08.670Z,6.87
2023-01-20T08:53:32.823Z,6.53
2023-01-20T08:56:56.804Z,8.93
2023-01-20T09:00:21.560Z,6.67
2023-01-20T09:04:03.048Z,5.80
2023-01-20T09:07:29.637Z,8.50
2023-01-20T09:10:54.232Z,6.70
2023-01-20T09:14:18.314Z,7.60
2023-01-20T09:17:42.609Z,6.60
2023-01-20T09:21:07.393Z,6.60
2023-01-20T09:24:32.387Z,6.50
2023-01-20T09:27:56.388Z,6.50
2023-01-20T09:31:20.558Z,5.80
2023-01-20T09:34:44.455Z,6.37
2023-01-20T09:38:25.689Z,5.53
2023-01-20T09:42:14.352Z,4.50
2023-01-20T09:45:49.061Z,5.10
2023-01-20T09:49:43.459Z,4.87
2023-01-20T09:53:15.583Z,7.93
2023-01-20T09:56:45.242Z,6.60
2023-01-20T10:00:20.456Z,6.20
2023-01-20T10:03:51.673Z,5.90
2023-01-20T10:07:24.117Z,5.13
2023-01-20T10:10:53.182Z,5.97
2023-01-20T10:14:24.393Z,7.33
2023-01-20T10:17:57.346Z,7.30
2023-01-20T10:21:31.250Z,4.80
2023-01-20T10:25:05.476Z,4.90
2023-01-20T10:28:33.373Z,5.13
2023-01-20T10:32:02.611Z,4.40
2023-01-20T10:35:32.143Z,4.93
2023-01-20T10:39:00.602Z,5.70
2023-01-20T10:42:28.356Z,6.00
2023-01-20T10:46:42.199Z,5.17
2023-01-20T10:50:48.718Z,5.60
2023-01-20T10:54:27.086Z,6.70
2023-01-20T10:57:55.879Z,7.03
2023-01-20T11:01:21.434Z,5.10
2023-01-20T11:04:46.963Z,6.13
2023-01-20T11:08:18.319Z,5.57
2023-01-20T11:11:42.343Z,5.40
2023-01-20T11:15:19.306Z,4.40
2023-01-20T11:18:42.818Z,4.20
2023-01-20T11:22:12.849Z,2.97
2023-01-20T11:25:38.112Z,2.73
2023-01-20T11:29:05.087Z,2.47
2023-01-20T11:32:31.944Z,2.50
2023-01-20T11:36:00.715Z,2.43
2023-01-20T11:39:30.382Z,2.07
2023-01-20T11:42:56.103Z,3.13
2023-01-20T11:46:26.206Z,2.93
2023-01-20T11:50:27.733Z,2.80
2023-01-20T11:53:51.778Z,4.73
2023-01-20T11:57:18.725Z,3.50
2023-01-20T12:00:45.583Z,2.90
2023-01-20T12:04:46.171Z,3.73
2023-01-20T12:08:20.344Z,2.67
2023-01-20T12:11:59.026Z,3.60
2023-01-20T12:15:27.359Z,3.43
2023-01-20T12:19:02.282Z,3.97
2023-01-20T12:22:36.508Z,2.57
2023-01-20T12:26:04.694Z,3.07
2023-01-20T12:29:44.731Z,3.50
2023-01-20T12:33:18.848Z,3.20
2023-01-20T12:37:06.974Z,6.53
2023-01-20T12:40:41.573Z,3.37
2023-01-20T12:44:14.627Z,3.43
2023-01-20T12:47:55.142Z,2.90
2023-01-20T12:51:33.492Z,2.17
2023-01-20T12:55:23.026Z,4.73
2023-01-20T12:58:58.683Z,3.90
2023-01-20T13:02:46.978Z,4.50
2023-01-20T13:06:38.462Z,3.23
2023-01-20T13:10:30.550Z,3.10
2023-01-20T13:14:11.901Z,3.47
2023-01-20T13:17:45.857Z,2.93
2023-01-20T13:21:18.821Z,5.07
2023-01-20T13:24:47.158Z,6.57
2023-01-20T13:28:18.639Z,4.77
2023-01-20T13:31:47.228Z,3.20
2023-01-20T13:35:46.696Z,3.10
2023-01-20T13:39:42.727Z,4.80
2023-01-20T13:43:31.450Z,3.80
2023-01-20T13:46:57.160Z,5.87
2023-01-20T13:50:26.908Z,3.23
2023-01-20T13:53:50.708Z,3.00
2023-01-20T13:57:38.551Z,3.23
2023-01-20T14:01:05.575Z,5.17
2023-01-20T14:04:32.887Z,2.53
2023-01-20T14:07:58.407Z,2.43
2023-01-20T14:11:25.259Z,2.67
2023-01-20T14:14:50.312Z,2.30
2023-01-20T14:18:18.636Z,2.67
2023-01-20T14:21:44.253Z,2.60
2023-01-20T14:25:22.148Z,2.70
2023-01-20T14:28:51.391Z,4.10
2023-01-20T14:32:22.585Z,2.33
2023-01-20T14:35:46.281Z,2.83
2023-01-20T14:39:21.536Z,3.40
2023-01-20T14:42:57.295Z,2.50
2023-01-20T14:46:21.356Z,1.97
2023-01-20T14:49:47.993Z,2.90
2023-01-20T14:53:15.542Z,3.27
2023-01-20T14:56:40.838Z,1.60
2023-01-20T15:00:23.527Z,2.30
2023-01-20T15:03:47.767Z,1.40
2023-01-20T15:07:20.323Z,2.00
2023-01-20T15:10:44.190Z,2.07
2023-01-20T15:14:12.982Z,2.10
2023-01-20T15:17:36.525Z,2.27
2023-01-20T15:21:20.157Z,3.50
2023-01-20T15:24:47.210Z,1.60
2023-01-20T15:28:27.603Z,2.00
2023-01-20T15:31:54.108Z,2.20
2023-01-20T15:35:23.134Z,2.80
2023-01-20T15:38:46.796Z,7.07
2023-01-20T15:42:13.039Z,5.57
2023-01-20T15:45:36.465Z,3.60
2023-01-20T15:49:01.817Z,3.23
2023-01-20T15:52:25.288Z,4.73
2023-01-20T15:55:52.552Z,4.90
2023-01-20T15:59:18.450Z,3.60
2023-01-20T16:02:42.001Z,4.50
2023-01-20T16:06:13.165Z,4.43
2023-01-20T16:09:38.584Z,3.50
2023-01-20T16:13:02.538Z,2.90
2023-01-20T16:16:29.484Z,2.30
2023-01-20T16:19:53.145Z,3.77
2023-01-20T16:23:17.997Z,2.33
2023-01-20T16:26:42.998Z,2.90
2023-01-20T16:30:08.195Z,5.57
2023-01-20T16:33:31.702Z,3.07
2023-01-20T16:36:55.177Z,2.93
2023-01-20T16:40:22.131Z,3.50
2023-01-20T16:43:45.602Z,7.03
2023-01-20T16:47:09.127Z,3.97
2023-01-20T16:50:32.920Z,4.00
2023-01-20T16:53:57.336Z,3.80
2023-01-20T16:57:22.078Z,2.83
2023-01-20T17:00:45.791Z,2.93
2023-01-20T17:04:10.825Z,5.23
2023-01-20T17:07:35.261Z,2.87
2023-01-20T17:10:58.859Z,4.70
2023-01-20T17:14:23.670Z,3.13
2023-01-20T17:17:50.661Z,4.07
2023-01-20T17:21:15.788Z,5.50
2023-01-20T17:24:40.267Z,5.53
2023-01-20T17:28:04.066Z,3.10
2023-01-20T17:31:29.355Z,6.20
2023-01-20T17:34:53.939Z,4.50
2023-01-20T17:38:17.455Z,7.60
2023-01-20T17:41:40.956Z,3.10
2023-01-20T17:45:04.912Z,3.60
2023-01-20T17:48:30.295Z,3.50
2023-01-20T17:51:53.908Z,3.67
2023-01-20T17:55:17.991Z,4.47
2023-01-20T17:58:42.735Z,4.27
2023-01-20T18:02:06.309Z,4.23
2023-01-20T18:05:31.259Z,4.63
2023-01-20T18:08:57.067Z,6.33
2023-01-20T18:12:21.438Z,3.07
2023-01-20T18:15:45.183Z,3.03
2023-01-20T18:19:12.176Z,3.83
2023-01-20T18:22:37.023Z,3.53
2023-01-20T18:26:00.710Z,4.93
2023-01-20T18:29:24.250Z,7.63
2023-01-20T18:32:47.702Z,5.97
2023-01-20T18:36:15.028Z,4.87
2023-01-20T18:39:40.029Z,4.00
2023-01-20T18:43:03.851Z,3.77
2023-01-20T18:46:29.428Z,4.47
2023-01-20T18:49:53.058Z,3.87
2023-01-20T18:53:17.879Z,5.23
2023-01-20T18:56:43.080Z,4.17
2023-01-20T19:00:09.843Z,3.53
2023-01-20T19:03:35.014Z,5.40
2023-01-20T19:06:58.943Z,4.33
2023-01-20T19:10:23.723Z,4.33
2023-01-20T19:13:50.895Z,6.50
2023-01-20T19:17:14.312Z,4.70
2023-01-20T19:20:38.146Z,6.30
2023-01-20T19:24:05.907Z,5.40
2023-01-20T19:27:29.705Z,4.17
2023-01-20T19:30:54.504Z,5.20
2023-01-20T19:34:18.059Z,4.20
2023-01-20T19:37:43.874Z,5.97
2023-01-20T19:41:09.756Z,3.67
2023-01-20T19:44:33.227Z,4.77
2023-01-20T19:47:58.530Z,6.53
2023-01-20T19:51:22.697Z,3.43
2023-01-20T19:54:46.520Z,4.33
2023-01-20T19:58:11.334Z,3.43
2023-01-20T20:01:38.086Z,3.10
2023-01-20T20:05:03.296Z,3.23
2023-01-20T20:08:27.162Z,3.13
2023-01-20T20:11:51.499Z,3.43
2023-01-20T20:15:15.412Z,2.90
2023-01-20T20:18:39.045Z,2.73
2023-01-20T20:22:04.560Z,2.47
2023-01-20T20:25:28.436Z,2.50
2023-01-20T20:28:52.438Z,6.90
2023-01-20T20:32:16.716Z,3.00
2023-01-20T20:35:40.907Z,3.47
2023-01-20T20:39:06.090Z,3.30
2023-01-20T20:42:30.307Z,3.00
2023-01-20T20:45:55.208Z,2.70
2023-01-20T20:49:19.190Z,3.10
2023-01-20T20:52:42.813Z,3.40
2023-01-20T20:56:11.642Z,3.83
2023-01-20T20:59:35.691Z,4.00
2023-01-20T21:02:59.984Z,5.10
2023-01-20T21:06:23.974Z,3.73
2023-01-20T21:09:48.018Z,3.90
2023-01-20T21:13:13.399Z,4.77
2023-01-20T21:16:37.905Z,5.20
2023-01-20T21:20:01.996Z,5.57
2023-01-20T21:23:26.204Z,5.43
2023-01-20T21:26:50.210Z,5.63
2023-01-20T21:30:16.497Z,5.73
2023-01-20T21:33:41.514Z,6.87
2023-01-20T21:37:04.953Z,4.40
2023-01-20T21:40:28.476Z,5.50
2023-01-20T21:44:09.934Z,4.17
2023-01-20T21:47:35.341Z,6.77
2023-01-20T21:51:19.624Z,4.73
2023-01-20T21:54:45.267Z,7.63
2023-01-20T21:58:10.341Z,11.40
2023-01-20T22:01:34.566Z,5.77
2023-01-20T22:05:00.082Z,7.00
2023-01-20T22:08:23.915Z,7.50
2023-01-20T22:11:47.480Z,10.13
2023-01-20T22:15:12.397Z,7.47
2023-01-20T22:18:35.810Z,6.47
2023-01-20T22:22:01.759Z,6.40
2023-01-20T22:25:25.256Z,8.53
2023-01-20T22:28:48.772Z,5.50
2023-01-20T22:32:13.325Z,5.70
2023-01-20T22:35:37.000Z,6.27
2023-01-20T22:39:02.251Z,5.63
2023-01-20T22:42:26.081Z,8.27
2023-01-20T22:45:49.494Z,8.03
2023-01-20T22:49:13.769Z,6.73
2023-01-20T22:52:37.523Z,5.30
2023-01-20T22:56:08.815Z,6.90
2023-01-20T22:59:32.240Z,6.50
2023-01-20T23:02:55.630Z,7.37
2023-01-20T23:06:19.370Z,7.00
2023-01-20T23:09:43.206Z,7.53
2023-01-20T23:13:08.441Z,6.77
2023-01-20T23:16:32.330Z,6.77
2023-01-20T23:19:56.446Z,7.20
2023-01-20T23:23:21.490Z,8.00
2023-01-20T23:26:45.357Z,8.37
2023-01-20T23:30:12.355Z,8.77
2023-01-20T23:33:36.960Z,8.10
2023-01-20T23:37:00.804Z,5.43
2023-01-20T23:40:24.557Z,4.60
2023-01-20T23:43:48.645Z,5.70
2023-01-20T23:47:13.650Z,6.47
2023-01-20T23:50:37.173Z,6.40
2023-01-20T23:54:02.681Z,5.80
2023-01-20T23:57:26.167Z,6.07
